Time;durP1;ratioP1;P1;durP2;ratioP2;P2;SDS_P1;SDS_P2;PMS_P1;PMS_P2;Temp;Humidity;BMP_temperature;BMP_pressure;BME280_temperature;BME280_humidity;BME280_pressure;Samples;Min_cycle;Max_cycle;Signal;HPM_P1;HPM_P2
2022/04/30 00:03:19;;;;;;;20.00;10.52;;;;;;;4.40;100.00;102873.75;10351169;28;20034;-76
2022/04/30 00:08:19;;;;;;;20.90;10.30;;;;;;;4.32;100.00;102859.22;10344035;28;20066;-75
2022/04/30 00:13:20;;;;;;;23.63;11.60;;;;;;;4.42;100.00;102870.84;10311706;28;20491;-76
2022/04/30 00:18:20;;;;;;;19.08;11.65;;;;;;;4.52;100.00;102866.09;10311233;28;20031;-75
2022/04/30 00:23:21;;;;;;;25.38;11.68;;;;;;;4.60;100.00;102852.50;10310994;28;20047;-75
2022/04/30 00:28:22;;;;;;;28.48;13.27;;;;;;;4.62;100.00;102861.38;10311881;28;20047;-75
2022/04/30 00:33:24;;;;;;;22.08;10.95;;;;;;;4.69;100.00;102857.97;10309687;28;20138;-75
2022/04/30 00:38:25;;;;;;;23.50;11.18;;;;;;;4.64;100.00;102848.41;10293111;28;20037;-75
2022/04/30 00:43:25;;;;;;;20.17;11.35;;;;;;;4.60;100.00;102841.59;10310594;28;20039;-74
2022/04/30 00:48:26;;;;;;;23.77;11.95;;;;;;;4.69;100.00;102845.19;10309565;28;20045;-74
2022/04/30 00:53:26;;;;;;;21.73;11.90;;;;;;;4.69;100.00;102847.91;10325957;28;20045;-75
2022/04/30 00:58:26;;;;;;;22.25;12.10;;;;;;;4.76;100.00;102826.28;10325690;28;20019;-75
2022/04/30 01:03:27;;;;;;;21.45;11.88;;;;;;;4.54;100.00;102786.84;10327422;28;20034;-75
2022/04/30 01:08:27;;;;;;;24.42;11.55;;;;;;;4.82;100.00;102834.66;10349289;28;20034;-75
2022/04/30 01:13:28;;;;;;;21.73;10.50;;;;;;;4.83;100.00;102802.75;10332617;28;20027;-76
2022/04/30 01:18:29;;;;;;;24.27;12.05;;;;;;;4.96;100.00;102815.88;10349180;28;20033;-75
2022/04/30 01:23:32;;;;;;;22.00;10.55;;;;;;;5.04;100.00;102811.31;10328440;28;20081;-76
2022/04/30 01:28:33;;;;;;;23.00;12.02;;;;;;;4.76;100.00;102748.00;10308939;28;20080;-75
2022/04/30 01:38:59;;;;;;;22.75;10.70;;;;;;;5.21;100.00;102794.94;10308896;28;20053;-75
2022/04/30 01:44:00;;;;;;;23.23;11.05;;;;;;;5.19;100.00;102786.06;10293068;28;20111;-75
2022/04/30 01:49:02;;;;;;;17.27;9.55;;;;;;;5.24;100.00;102800.88;10308291;28;20045;-75
2022/04/30 01:54:03;;;;;;;18.45;9.63;;;;;;;5.20;100.00;102790.47;10291055;28;20098;-75
2022/04/30 01:59:03;;;;;;;21.20;10.52;;;;;;;5.18;100.00;102778.88;10307983;28;20031;-75
2022/04/30 02:04:04;;;;;;;19.50;8.60;;;;;;;5.23;100.00;102792.88;10329298;28;20582;-75
2022/04/30 02:09:05;;;;;;;20.58;11.15;;;;;;;5.25;100.00;102785.38;10346578;28;20358;-74
2022/04/30 02:14:05;;;;;;;15.50;8.32;;;;;;;5.25;100.00;102775.28;10330537;28;20038;-74
2022/04/30 02:19:06;;;;;;;20.95;11.75;;;;;;;5.28;100.00;102771.34;10330453;28;20497;-74
2022/04/30 02:24:07;;;;;;;25.48;8.90;;;;;;;5.34;100.00;102769.81;10346034;28;20061;-75
2022/04/30 02:29:08;;;;;;;13.55;8.55;;;;;;;5.19;100.00;102747.81;10346301;28;20390;-75
2022/04/30 02:34:08;;;;;;;14.75;7.70;;;;;;;5.26;100.00;102767.94;10345223;28;20062;-75
2022/04/30 02:39:09;;;;;;;11.13;7.82;;;;;;;5.20;100.00;102760.44;10329929;28;20062;-75
2022/04/30 02:44:09;;;;;;;15.07;7.88;;;;;;;5.23;100.00;102757.38;10347544;28;20038;-76
2022/04/30 02:49:10;;;;;;;16.58;8.27;;;;;;;5.24;100.00;102756.34;10345963;28;20049;-76
2022/04/30 02:54:10;;;;;;;12.43;7.47;;;;;;;5.21;100.00;102746.63;10346658;28;20042;-76
2022/04/30 03:04:29;;;;;;;16.60;8.32;;;;;;;5.01;100.00;102717.97;10326955;28;20070;-76
2022/04/30 03:09:31;;;;;;;10.57;7.70;;;;;;;5.08;100.00;102739.97;10305252;28;20035;-76
2022/04/30 03:14:31;;;;;;;18.70;9.20;;;;;;;5.02;100.00;102730.59;10321779;28;20045;-76
2022/04/30 03:24:51;;;;;;;13.27;7.75;;;;;;;4.87;100.00;102707.75;10305552;28;20054;-76
2022/04/30 03:29:52;;;;;;;16.27;8.30;;;;;;;4.92;100.00;102719.88;10308924;28;20046;-76
2022/04/30 03:34:53;;;;;;;12.82;8.95;;;;;;;4.91;100.00;102726.34;10311661;28;20445;-76
2022/04/30 03:39:54;;;;;;;17.98;9.38;;;;;;;4.89;100.00;102720.19;10328180;28;20066;-76
2022/04/30 03:44:54;;;;;;;16.63;7.95;;;;;;;4.88;100.00;102729.41;10313511;28;20035;-76
2022/04/30 03:49:55;;;;;;;15.43;8.40;;;;;;;4.82;100.00;102713.72;10312932;28;20027;-76
2022/04/30 03:54:55;;;;;;;14.52;8.30;;;;;;;4.88;100.00;102718.50;10312904;28;20033;-76
2022/04/30 03:59:56;;;;;;;16.10;8.18;;;;;;;4.84;100.00;102711.69;10311583;28;20063;-75
2022/04/30 04:04:56;;;;;;;13.20;8.50;;;;;;;4.86;100.00;102715.09;10349016;28;20034;-75
2022/04/30 04:09:57;;;;;;;12.77;8.20;;;;;;;4.85;100.00;102707.91;10325177;28;20046;-75
2022/04/30 04:20:27;;;;;;;13.48;8.50;;;;;;;4.67;100.00;102683.53;10310321;28;20050;-75
2022/04/30 04:30:46;;;;;;;15.45;8.15;;;;;;;4.76;100.00;102687.13;10314502;28;20053;-75
2022/04/30 04:35:47;;;;;;;15.82;8.40;;;;;;;4.95;100.00;102715.94;10351676;28;20034;-75
2022/04/30 04:40:47;;;;;;;21.00;9.32;;;;;;;5.04;100.00;102717.63;10350127;28;20098;-75
2022/04/30 04:45:47;;;;;;;17.92;8.40;;;;;;;5.07;100.00;102725.47;10350787;28;20038;-75
2022/04/30 04:50:48;;;;;;;14.27;8.77;;;;;;;5.10;100.00;102718.81;10349253;28;20034;-75
2022/04/30 04:55:49;;;;;;;10.32;7.43;;;;;;;5.17;100.00;102736.22;10349626;28;20037;-75
2022/04/30 05:00:49;;;;;;;14.45;7.78;;;;;;;5.15;100.00;102719.16;10349252;28;20034;-76
2022/04/30 05:05:51;;;;;;;16.80;8.70;;;;;;;5.16;100.00;102724.44;10345201;28;20096;-75
2022/04/30 05:10:51;;;;;;;13.27;8.25;;;;;;;5.03;100.00;102705.00;10307798;28;20498;-75
2022/04/30 05:15:52;;;;;;;15.18;7.97;;;;;;;5.12;100.00;102716.75;10309335;28;20034;-75
2022/04/30 05:20:53;;;;;;;10.95;8.25;;;;;;;5.21;100.00;102730.25;10309362;28;20035;-76
2022/04/30 05:25:54;;;;;;;12.05;8.35;;;;;;;5.25;100.00;102737.06;10309677;28;20130;-75
2022/04/30 05:30:54;;;;;;;16.30;8.35;;;;;;;5.32;100.00;102725.44;10309088;28;20043;-75
2022/04/30 05:35:57;;;;;;;14.25;8.13;;;;;;;5.44;100.00;102727.63;10308349;28;20031;-74
2022/04/30 05:40:58;;;;;;;13.45;8.38;;;;;;;5.60;100.00;102723.13;10323210;28;20027;-75
2022/04/30 05:45:58;;;;;;;14.30;7.63;;;;;;;5.86;100.00;102731.91;10308721;28;20035;-76
2022/04/30 05:50:59;;;;;;;10.10;6.82;;;;;;;6.16;100.00;102737.63;10307937;28;20027;-75
2022/04/30 05:55:59;;;;;;;14.40;7.35;;;;;;;6.51;100.00;102735.38;10309020;28;20030;-76
2022/04/30 06:01:00;;;;;;;13.10;7.35;;;;;;;6.79;100.00;102721.97;10319518;28;20034;-76
2022/04/30 06:06:00;;;;;;;11.20;6.55;;;;;;;7.19;100.00;102721.75;10346028;28;20042;-76
2022/04/30 06:11:01;;;;;;;10.35;5.75;;;;;;;7.46;100.00;102699.22;10347306;28;20023;-76
2022/04/30 06:16:01;;;;;;;10.88;5.40;;;;;;;8.21;100.00;102730.13;10346539;28;20019;-76
2022/04/30 06:21:02;;;;;;;11.20;5.15;;;;;;;8.66;100.00;102719.91;10347691;28;20157;-75
2022/04/30 06:26:02;;;;;;;9.45;5.15;;;;;;;9.11;100.00;102735.28;10345901;28;20057;-75
2022/04/30 06:31:03;;;;;;;8.75;4.18;;;;;;;9.21;100.00;102733.88;10348111;28;20038;-75
2022/04/30 06:36:03;;;;;;;9.07;4.70;;;;;;;9.30;100.00;102740.06;10344729;28;20506;-75
2022/04/30 06:41:04;;;;;;;9.48;4.63;;;;;;;9.54;100.00;102740.66;10317563;28;20039;-74
2022/04/30 06:46:06;;;;;;;9.18;5.45;;;;;;;9.35;100.00;102734.84;10306341;28;20023;-75
2022/04/30 06:51:06;;;;;;;8.10;3.85;;;;;;;9.44;100.00;102735.53;10306507;28;20442;-75
2022/04/30 07:01:42;;;;;;;6.45;3.38;;;;;;;9.69;100.00;102722.13;10314413;28;20057;-75
2022/04/30 07:06:45;;;;;;;7.10;3.30;;;;;;;9.88;100.00;102732.41;10352545;28;20431;-76
2022/04/30 07:11:45;;;;;;;12.25;4.22;;;;;;;9.86;100.00;102726.25;10377068;28;20069;-75
2022/04/30 07:16:45;;;;;;;7.50;4.20;;;;;;;10.07;100.00;102735.44;10376492;28;20201;-75
2022/04/30 07:21:46;;;;;;;7.15;3.47;;;;;;;10.49;100.00;102739.84;10383913;28;20045;-75
2022/04/30 07:26:46;;;;;;;7.60;4.25;;;;;;;10.82;100.00;102732.69;10394021;28;20533;-76
2022/04/30 07:31:47;;;;;;;8.93;2.50;;;;;;;10.83;100.00;102731.63;10391323;28;20083;-75
2022/04/30 07:36:47;;;;;;;9.70;3.80;;;;;;;10.63;100.00;102735.22;10392433;28;20568;-77
2022/04/30 07:41:49;;;;;;;9.48;4.30;;;;;;;10.57;100.00;102736.06;10392664;28;20085;-75
2022/04/30 07:46:50;;;;;;;5.85;3.00;;;;;;;10.67;100.00;102733.75;10388118;28;20114;-77
2022/04/30 07:51:55;;;;;;;8.57;3.67;;;;;;;10.97;100.00;102732.50;10391805;28;20331;-75
2022/04/30 07:56:56;;;;;;;12.07;3.22;;;;;;;11.35;100.00;102716.16;10390669;28;20041;-75
2022/04/30 08:01:57;;;;;;;4.47;2.20;;;;;;;11.49;100.00;102694.88;10369738;28;20053;-76
2022/04/30 08:06:59;;;;;;;5.53;2.50;;;;;;;11.32;100.00;102698.09;10386026;28;20038;-76
2022/04/30 08:11:59;;;;;;;4.65;2.60;;;;;;;11.80;100.00;102696.94;10388692;28;20068;-73
2022/04/30 08:17:00;;;;;;;5.65;2.72;;;;;;;11.91;97.93;102660.41;10391214;28;20101;-73
2022/04/30 08:22:00;;;;;;;7.15;2.90;;;;;;;12.50;97.73;102712.75;10391890;28;20080;-74
2022/04/30 08:27:01;;;;;;;5.18;3.08;;;;;;;12.86;95.95;102705.69;10391959;28;20054;-73
2022/04/30 08:32:02;;;;;;;5.65;2.90;;;;;;;13.05;94.85;102696.38;10391472;28;20046;-75
2022/04/30 08:37:03;;;;;;;9.32;3.78;;;;;;;13.20;93.57;102678.59;10379445;28;20029;-76
2022/04/30 08:42:06;;;;;;;6.60;3.63;;;;;;;13.41;89.93;102680.94;10385122;28;20025;-76
2022/04/30 08:47:10;;;;;;;8.82;3.70;;;;;;;13.42;89.51;102677.13;10372287;28;20045;-75
2022/04/30 08:52:15;;;;;;;6.03;3.10;;;;;;;13.50;88.69;102676.81;10389332;28;20109;-76
2022/04/30 08:57:15;;;;;;;8.50;3.75;;;;;;;13.29;88.44;102682.75;10390712;28;20022;-75
2022/04/30 09:02:16;;;;;;;7.88;3.88;;;;;;;12.96;88.18;102683.94;10389827;28;20026;-75
2022/04/30 09:07:18;;;;;;;6.13;3.13;;;;;;;12.59;88.12;102666.34;10372001;28;20030;-76
2022/04/30 09:12:18;;;;;;;8.02;4.03;;;;;;;12.65;88.90;102687.56;10359970;28;20065;-75
2022/04/30 09:17:21;;;;;;;6.70;3.47;;;;;;;12.68;88.87;102685.19;10389749;28;20045;-74
2022/04/30 09:22:33;;;;;;;11.18;4.45;;;;;;;12.72;90.28;102683.69;10372595;28;20184;-75
2022/04/30 09:27:33;;;;;;;7.80;3.28;;;;;;;12.75;89.76;102676.84;10383874;28;20975;-75
2022/04/30 09:32:34;;;;;;;5.63;3.75;;;;;;;13.03;88.76;102690.22;10388495;28;20041;-75
2022/04/30 09:37:48;;;;;;;4.53;2.80;;;;;;;12.70;88.21;102660.94;10351139;28;20045;-76
2022/04/30 09:42:49;;;;;;;4.70;2.58;;;;;;;13.00;86.04;102660.28;10385536;28;20104;-76
2022/04/30 09:47:49;;;;;;;5.80;3.10;;;;;;;13.07;83.51;102650.00;10387126;28;20129;-76
2022/04/30 09:58:09;;;;;;;5.53;2.95;;;;;;;13.65;81.92;102648.75;10387352;28;20066;-74
2022/04/30 10:03:09;;;;;;;7.78;3.55;;;;;;;13.95;83.68;102652.63;10370285;28;20034;-74
2022/04/30 10:08:10;;;;;;;7.70;2.80;;;;;;;13.95;83.38;102641.53;10381028;28;20072;-75
2022/04/30 10:13:22;;;;;;;5.70;2.55;;;;;;;14.21;80.79;102635.63;10368269;28;20033;-74
2022/04/30 10:18:41;;;;;;;7.10;2.75;;;;;;;13.96;80.13;102644.09;10386930;28;20018;-76
2022/04/30 10:23:42;;;;;;;6.65;2.50;;;;;;;14.07;79.71;102634.13;10368725;28;20049;-77
2022/04/30 10:28:42;;;;;;;7.43;3.35;;;;;;;14.22;80.48;102640.09;10385257;28;20069;-76
2022/04/30 10:33:48;;;;;;;4.35;2.80;;;;;;;14.60;80.12;102625.03;10386698;28;20041;-73
2022/04/30 10:39:04;;;;;;;9.30;2.67;;;;;;;14.38;78.78;102607.25;10381968;28;20033;-74
2022/04/30 10:44:04;;;;;;;7.22;3.08;;;;;;;14.00;80.20;102623.16;10367316;28;20049;-73
2022/04/30 10:49:08;;;;;;;6.05;3.22;;;;;;;14.24;80.12;102603.84;10385855;28;20057;-74
2022/04/30 10:54:10;;;;;;;4.43;3.40;;;;;;;14.21;81.39;102619.00;10384478;28;20376;-75
2022/04/30 10:59:11;;;;;;;3.85;3.22;;;;;;;14.09;80.44;102620.91;10386345;28;20030;-76
2022/04/30 11:04:16;;;;;;;7.78;3.67;;;;;;;13.39;81.54;102604.78;10384830;28;20030;-76
2022/04/30 11:09:17;;;;;;;6.85;4.05;;;;;;;13.43;86.19;102629.00;10382106;28;20348;-75
2022/04/30 11:14:18;;;;;;;7.28;4.20;;;;;;;13.50;84.04;102627.00;10384811;28;20041;-76
2022/04/30 11:19:20;;;;;;;6.20;3.42;;;;;;;13.44;83.86;102625.16;10368044;28;20022;-75
2022/04/30 11:24:31;;;;;;;6.55;3.45;;;;;;;13.32;83.53;102604.88;10383910;28;20054;-76
2022/04/30 11:29:36;;;;;;;8.20;3.78;;;;;;;13.48;83.00;102615.31;10384836;28;20037;-75
2022/04/30 11:34:38;;;;;;;7.43;2.83;;;;;;;13.60;81.52;102590.50;10386255;28;20129;-75
2022/04/30 11:39:39;;;;;;;6.18;2.88;;;;;;;13.82;79.39;102598.28;10361216;28;20129;-74
2022/04/30 11:44:39;;;;;;;6.13;3.08;;;;;;;14.18;77.75;102586.25;10344642;28;20054;-73
2022/04/30 11:49:40;;;;;;;5.50;3.13;;;;;;;14.23;77.26;102558.69;10346830;28;20046;-74
2022/04/30 11:54:41;;;;;;;2.97;2.47;;;;;;;14.62;75.52;102567.44;10351817;28;20426;-76
2022/04/30 11:59:41;;;;;;;3.90;2.70;;;;;;;14.76;75.26;102564.41;10351504;28;20117;-75
2022/04/30 12:04:42;;;;;;;7.60;2.63;;;;;;;14.79;73.83;102558.41;10353159;28;20034;-74
2022/04/30 12:09:47;;;;;;;6.97;2.33;;;;;;;14.30;74.94;102573.28;10318804;28;20049;-75
2022/04/30 12:14:49;;;;;;;4.18;2.83;;;;;;;14.03;78.96;102536.81;10321864;28;20498;-75
2022/04/30 12:25:10;;;;;;;6.15;2.75;;;;;;;13.74;78.41;102569.00;10323821;28;20444;-75
2022/04/30 12:30:14;;;;;;;7.07;2.53;;;;;;;13.44;77.33;102550.47;10326540;28;20454;-76
2022/04/30 12:35:15;;;;;;;6.80;2.35;;;;;;;13.52;78.10;102565.91;10310599;28;20077;-75
2022/04/30 12:40:16;;;;;;;3.22;2.25;;;;;;;13.51;77.79;102561.44;10325760;28;20054;-75
2022/04/30 12:45:16;;;;;;;6.75;2.28;;;;;;;13.92;77.55;102554.25;10309992;28;20042;-76
2022/04/30 12:50:17;;;;;;;6.05;1.73;;;;;;;14.54;76.20;102551.97;10308769;28;20075;-76
2022/04/30 12:55:18;;;;;;;4.32;2.33;;;;;;;14.99;72.89;102535.84;10310428;28;20069;-74
2022/04/30 13:00:18;;;;;;;5.40;2.00;;;;;;;15.04;73.18;102531.22;10324971;28;20027;-75
2022/04/30 13:05:19;;;;;;;5.43;2.42;;;;;;;14.84;72.67;102478.09;10310794;28;20054;-75
2022/04/30 13:15:39;;;;;;;4.35;2.50;;;;;;;15.81;71.48;102527.25;10345084;28;20058;-76
2022/04/30 13:20:39;;;;;;;5.55;2.55;;;;;;;16.13;69.83;102518.38;10378013;28;20036;-75
2022/04/30 13:25:40;;;;;;;7.15;2.60;;;;;;;16.04;68.83;102506.84;10387776;28;20093;-76
2022/04/30 13:30:40;;;;;;;4.13;2.17;;;;;;;15.74;68.58;102510.75;10389638;28;20073;-75
2022/04/30 13:35:41;;;;;;;4.50;2.20;;;;;;;15.67;69.15;102515.59;10389936;28;20025;-74
2022/04/30 13:40:41;;;;;;;6.65;2.17;;;;;;;15.67;68.63;102504.50;10386016;28;20045;-74
2022/04/30 13:45:41;;;;;;;3.42;1.88;;;;;;;15.31;67.49;102489.06;10356174;28;20038;-75
2022/04/30 13:50:42;;;;;;;3.33;1.50;;;;;;;15.61;67.46;102493.53;10336920;28;20074;-76
2022/04/30 13:55:43;;;;;;;4.90;1.67;;;;;;;15.99;66.56;102486.47;10308250;28;20149;-76
2022/04/30 14:00:43;;;;;;;3.35;2.03;;;;;;;16.32;64.88;102471.72;10308157;28;20030;-73
2022/04/30 14:05:44;;;;;;;3.70;1.95;;;;;;;16.62;62.57;102465.78;10308547;28;20038;-74
2022/04/30 14:10:44;;;;;;;3.17;1.67;;;;;;;16.41;64.08;102477.69;10307388;28;20066;-74
2022/04/30 14:15:45;;;;;;;3.75;1.70;;;;;;;16.19;63.25;102461.81;10321270;28;20046;-76
2022/04/30 14:20:46;;;;;;;2.60;2.20;;;;;;;15.91;64.13;102483.00;10305761;28;20505;-73
2022/04/30 14:25:46;;;;;;;4.68;2.22;;;;;;;15.89;64.82;102485.19;10305562;28;20403;-75
2022/04/30 14:30:47;;;;;;;4.20;2.00;;;;;;;15.41;64.51;102480.09;10307494;28;20042;-75
2022/04/30 14:35:48;;;;;;;4.10;2.60;;;;;;;15.28;66.08;102467.38;10307522;28;20042;-75
2022/04/30 14:40:48;;;;;;;7.15;3.40;;;;;;;15.28;66.90;102484.03;10304987;28;20250;-75
2022/04/30 14:45:49;;;;;;;8.10;2.90;;;;;;;15.16;66.65;102472.13;10306003;28;20035;-73
2022/04/30 14:50:49;;;;;;;6.78;2.75;;;;;;;14.97;68.38;102488.94;10304990;28;20475;-75
2022/04/30 14:55:55;;;;;;;6.45;2.65;;;;;;;14.49;69.64;102434.59;10289530;28;20035;-75
2022/04/30 15:00:55;;;;;;;3.60;2.60;;;;;;;14.82;69.77;102480.25;10302025;28;20023;-74
2022/04/30 15:05:57;;;;;;;3.80;2.28;;;;;;;14.87;69.24;102460.97;10346747;28;20030;-75
2022/04/30 15:10:58;;;;;;;4.38;3.00;;;;;;;14.93;68.05;102473.88;10345937;28;20041;-74
2022/04/30 15:15:58;;;;;;;5.78;2.78;;;;;;;14.46;70.94;102476.66;10345744;28;20038;-75
2022/04/30 15:20:59;;;;;;;6.15;2.85;;;;;;;14.88;71.75;102484.84;10344465;28;20069;-74
2022/04/30 15:25:59;;;;;;;5.00;2.65;;;;;;;14.76;70.45;102468.25;10349892;28;20050;-73
2022/04/30 15:31:00;;;;;;;8.20;3.10;;;;;;;14.77;72.95;102477.41;10354234;28;20525;-74
2022/04/30 15:36:03;;;;;;;4.72;3.33;;;;;;;14.89;72.02;102464.34;10353503;28;20054;-75
2022/04/30 15:41:04;;;;;;;6.88;2.95;;;;;;;14.79;73.09;102458.59;10351991;28;20072;-74
2022/04/30 15:46:04;;;;;;;4.28;2.90;;;;;;;14.89;71.51;102448.56;10351739;28;20438;-75
2022/04/30 15:51:23;;;;;;;4.65;2.88;;;;;;;14.91;70.34;102440.00;10335483;28;20513;-74
2022/04/30 15:56:24;;;;;;;4.25;2.90;;;;;;;14.99;72.33;102447.94;10353699;28;20033;-72
2022/04/30 16:01:26;;;;;;;3.35;2.28;;;;;;;14.92;69.93;102444.44;10352705;28;20034;-75
2022/04/30 16:06:26;;;;;;;6.88;3.38;;;;;;;14.57;69.70;102456.44;10350861;28;20042;-75
2022/04/30 16:11:27;;;;;;;7.30;3.20;;;;;;;14.42;70.34;102447.75;10351617;28;20034;-75
2022/04/30 16:16:31;;;;;;;5.43;3.00;;;;;;;14.25;70.62;102437.41;10351609;28;20395;-72
2022/04/30 16:21:32;;;;;;;3.53;2.15;;;;;;;14.90;69.60;102422.53;10350482;28;20038;-73
2022/04/30 16:26:34;;;;;;;6.78;2.70;;;;;;;14.86;68.61;102426.00;10349893;28;20038;-77
2022/04/30 16:31:38;;;;;;;7.57;3.00;;;;;;;14.42;71.67;102436.66;10349015;28;20026;-74
2022/04/30 16:36:39;;;;;;;5.97;2.30;;;;;;;13.68;71.05;102443.47;10347957;28;20360;-72
2022/04/30 16:41:40;;;;;;;4.15;2.60;;;;;;;12.77;73.25;102442.53;10334359;28;20030;-75
2022/04/30 16:46:40;;;;;;;6.22;3.00;;;;;;;12.48;75.43;102452.44;10323519;28;20038;-75
2022/04/30 16:57:05;;;;;;;4.57;3.17;;;;;;;12.30;75.34;102470.69;10310159;28;20035;-75
2022/04/30 17:02:06;;;;;;;5.10;2.97;;;;;;;11.93;75.42;102457.84;10304622;28;20031;-75
2022/04/30 17:07:07;;;;;;;4.45;3.20;;;;;;;11.67;79.84;102451.44;10308145;28;20031;-74
2022/04/30 17:12:08;;;;;;;5.15;3.20;;;;;;;11.73;80.33;102474.53;10324165;28;20038;-75
2022/04/30 17:17:08;;;;;;;5.32;2.83;;;;;;;11.33;80.37;102461.84;10309835;28;20083;-74
2022/04/30 17:22:09;;;;;;;6.03;3.45;;;;;;;11.34;84.09;102480.06;10308702;28;20395;-74
2022/04/30 17:27:12;;;;;;;5.70;2.85;;;;;;;11.36;83.35;102472.41;10307940;28;20051;-74
2022/04/30 17:42:52;;;;;;;7.15;3.10;;;;;;;10.88;89.06;102473.69;10332256;28;20052;-74
2022/04/30 17:47:53;;;;;;;9.90;3.58;;;;;;;10.52;91.57;102419.13;10345587;28;20096;-74
2022/04/30 17:52:53;;;;;;;6.93;3.05;;;;;;;10.75;91.32;102481.13;10338421;28;20190;-75
2022/04/30 17:57:54;;;;;;;5.22;3.42;;;;;;;10.70;95.46;102487.28;10355014;28;20031;-76
2022/04/30 18:02:54;;;;;;;5.68;3.92;;;;;;;10.58;96.45;102489.84;10358824;28;20030;-76
2022/04/30 18:07:55;;;;;;;5.45;4.13;;;;;;;10.33;99.96;102489.69;10345856;28;20427;-74
2022/04/30 18:12:55;;;;;;;6.88;4.13;;;;;;;10.20;100.00;102485.00;10344291;28;20049;-74
2022/04/30 18:17:56;;;;;;;6.57;3.70;;;;;;;10.16;100.00;102492.00;10346038;28;20409;-73
2022/04/30 18:22:56;;;;;;;5.10;3.50;;;;;;;9.99;100.00;102499.00;10345429;28;20038;-74
2022/04/30 18:27:57;;;;;;;7.68;3.92;;;;;;;9.94;100.00;102505.09;10345134;28;20184;-73
2022/04/30 18:32:57;;;;;;;6.55;4.00;;;;;;;9.80;100.00;102503.44;10338840;28;20050;-75
2022/04/30 18:37:58;;;;;;;6.32;4.30;;;;;;;9.69;100.00;102502.09;10344568;28;20051;-75
2022/04/30 18:43:00;;;;;;;9.63;4.28;;;;;;;9.60;100.00;102508.88;10342777;28;20038;-75
2022/04/30 18:48:00;;;;;;;5.57;4.40;;;;;;;9.47;100.00;102515.19;10345965;28;20102;-74
2022/04/30 18:53:01;;;;;;;9.77;4.00;;;;;;;9.41;100.00;102527.84;10346737;28;20041;-74
2022/04/30 19:03:21;;;;;;;5.13;4.30;;;;;;;9.30;100.00;102514.69;10344772;28;20505;-74
2022/04/30 19:08:21;;;;;;;7.47;5.03;;;;;;;9.16;100.00;102504.72;10345213;28;20090;-74
2022/04/30 19:13:23;;;;;;;9.20;5.18;;;;;;;9.23;100.00;102535.81;10346077;28;20026;-74
2022/04/30 19:18:23;;;;;;;8.57;4.82;;;;;;;9.14;100.00;102537.06;10345315;28;20077;-74
2022/04/30 19:23:25;;;;;;;9.02;5.28;;;;;;;9.06;100.00;102533.41;10345130;28;20049;-74
2022/04/30 19:28:25;;;;;;;8.98;5.47;;;;;;;8.97;100.00;102531.91;10343629;28;20045;-75
2022/04/30 19:33:26;;;;;;;11.15;5.85;;;;;;;8.84;100.00;102534.53;10345097;28;20029;-74
2022/04/30 19:38:26;;;;;;;8.80;5.75;;;;;;;8.73;100.00;102533.22;10346159;28;20049;-74
2022/04/30 19:43:27;;;;;;;7.80;4.63;;;;;;;8.59;100.00;102540.50;10343557;28;20042;-74
2022/04/30 19:48:29;;;;;;;8.32;4.55;;;;;;;8.48;100.00;102543.81;10345655;28;20030;-74
2022/04/30 19:53:33;;;;;;;6.93;4.85;;;;;;;8.24;100.00;102521.22;10343873;28;20026;-74
2022/04/30 19:58:33;;;;;;;10.70;5.03;;;;;;;8.04;100.00;102521.06;10344164;28;20037;-74
2022/04/30 20:03:37;;;;;;;8.77;5.00;;;;;;;7.92;100.00;102522.63;10343025;28;20061;-71
2022/04/30 20:08:37;;;;;;;11.90;6.15;;;;;;;7.79;100.00;102523.34;10344231;28;20040;-74
2022/04/30 20:18:57;;;;;;;12.60;7.38;;;;;;;7.57;100.00;102533.44;10346884;28;20086;-74
2022/04/30 20:23:57;;;;;;;10.40;6.43;;;;;;;7.43;100.00;102529.69;10350304;28;20062;-75
2022/04/30 20:28:58;;;;;;;13.80;8.98;;;;;;;7.37;100.00;102522.22;10349070;28;20030;-74
2022/04/30 20:39:17;;;;;;;19.75;10.23;;;;;;;7.40;100.00;102523.72;10349452;28;20054;-74
2022/04/30 20:44:18;;;;;;;15.73;8.95;;;;;;;7.39;100.00;102522.88;10350074;28;20778;-74
2022/04/30 20:49:19;;;;;;;18.00;9.68;;;;;;;7.33;100.00;102517.34;10331459;28;20026;-75
2022/04/30 20:54:19;;;;;;;13.48;8.55;;;;;;;7.29;100.00;102527.81;10348759;28;20462;-75
2022/04/30 20:59:20;;;;;;;15.05;9.52;;;;;;;7.14;100.00;102527.84;10348000;28;20383;-74
2022/04/30 21:04:21;;;;;;;13.48;8.63;;;;;;;7.13;100.00;102539.00;10346534;28;20521;-74
2022/04/30 21:09:21;;;;;;;13.75;9.38;;;;;;;6.90;100.00;102526.25;10348621;28;20316;-74
2022/04/30 21:14:22;;;;;;;17.77;9.75;;;;;;;6.85;100.00;102537.78;10346804;28;20027;-74
2022/04/30 21:19:23;;;;;;;18.88;11.10;;;;;;;6.70;100.00;102533.34;10348616;28;20030;-74
2022/04/30 21:24:23;;;;;;;16.23;10.07;;;;;;;6.66;100.00;102543.84;10347875;28;20051;-74
2022/04/30 21:29:24;;;;;;;15.50;10.45;;;;;;;6.58;100.00;102528.34;10348222;28;20114;-74
2022/04/30 21:34:24;;;;;;;18.67;12.52;;;;;;;6.51;100.00;102527.41;10313550;28;20038;-75
2022/04/30 21:39:24;;;;;;;16.85;11.00;;;;;;;6.50;100.00;102517.47;10309518;28;20031;-75
2022/04/30 21:44:25;;;;;;;17.75;11.55;;;;;;;6.43;100.00;102524.75;10341020;28;20086;-75
2022/04/30 21:49:26;;;;;;;16.08;10.45;;;;;;;6.39;100.00;102517.94;10346826;28;20026;-74
2022/04/30 21:59:48;;;;;;;20.70;11.23;;;;;;;6.34;100.00;102523.13;10348613;28;20057;-74
2022/04/30 21:59:49;;;;;;;18.17;10.55;;;;;;;6.33;100.00;102521.44;10348901;28;20057;-75
2022/04/30 22:04:50;;;;;;;17.17;12.05;;;;;;;6.22;100.00;102507.16;10336760;28;20034;-74
2022/04/30 22:09:52;;;;;;;16.08;11.15;;;;;;;6.23;100.00;102510.75;10348713;28;20482;-74
2022/04/30 22:14:55;;;;;;;16.52;10.55;;;;;;;6.18;100.00;102519.50;10347564;28;20022;-74
2022/04/30 22:19:56;;;;;;;18.35;12.13;;;;;;;5.83;100.00;102456.22;10347054;28;20085;-75
2022/04/30 22:24:56;;;;;;;17.63;10.93;;;;;;;6.19;100.00;102525.81;10309341;28;20503;-75
2022/04/30 22:29:57;;;;;;;20.02;11.80;;;;;;;6.11;100.00;102523.16;10307698;28;20514;-75
2022/04/30 22:34:57;;;;;;;18.00;12.75;;;;;;;5.99;100.00;102520.84;10307349;28;20537;-73
2022/04/30 22:45:17;;;;;;;23.25;14.75;;;;;;;5.75;100.00;102513.66;10305397;28;20050;-75
2022/04/30 22:50:18;;;;;;;17.85;13.55;;;;;;;5.69;100.00;102519.88;10304702;28;20461;-75
2022/04/30 22:55:19;;;;;;;25.00;15.45;;;;;;;5.66;100.00;102520.22;10321769;28;20035;-75
2022/04/30 23:00:19;;;;;;;22.63;13.43;;;;;;;5.60;100.00;102518.19;10306814;28;20082;-75
2022/04/30 23:05:20;;;;;;;19.60;13.73;;;;;;;5.54;100.00;102513.47;10338084;28;20031;-74
2022/04/30 23:10:22;;;;;;;21.98;14.43;;;;;;;5.42;100.00;102486.56;10320116;28;20030;-75
2022/04/30 23:15:22;;;;;;;23.23;15.07;;;;;;;5.47;100.00;102511.44;10345960;28;20039;-75
2022/04/30 23:20:23;;;;;;;22.25;15.30;;;;;;;5.31;100.00;102495.16;10345965;28;20030;-75
2022/04/30 23:25:23;;;;;;;23.17;14.25;;;;;;;5.44;100.00;102516.44;10346237;28;20108;-75
2022/04/30 23:30:25;;;;;;;22.85;14.93;;;;;;;5.44;100.00;102516.44;10345027;28;20050;-74
2022/04/30 23:35:26;;;;;;;30.63;14.98;;;;;;;5.37;100.00;102510.81;10338942;28;20089;-75
2022/04/30 23:40:26;;;;;;;22.90;16.00;;;;;;;5.43;100.00;102525.66;10305434;28;20451;-75
2022/04/30 23:45:27;;;;;;;27.90;16.25;;;;;;;5.40;100.00;102495.97;10305087;28;20138;-75
2022/04/30 23:50:27;;;;;;;23.15;15.45;;;;;;;5.42;100.00;102496.66;10295827;28;20027;-75
2022/04/30 23:55:28;;;;;;;28.25;16.15;;;;;;;5.53;100.00;102509.88;10311644;28;20034;-75
